sensor_id;sensor_type;location;lat;lon;timestamp;P1;durP1;ratioP1;P2;durP2;ratioP2
22046;SDS011;11187;49.412;20.956;2023-07-13T00:01:02;30.90;;;27.60;;
22046;SDS011;11187;49.412;20.956;2023-07-13T00:03:56;33.28;;;27.00;;
22046;SDS011;11187;49.412;20.956;2023-07-13T00:06:30;30.85;;;27.63;;
22046;SDS011;11187;49.412;20.956;2023-07-13T00:09:17;30.10;;;26.90;;
22046;SDS011;11187;49.412;20.956;2023-07-13T00:11:52;31.13;;;27.88;;
22046;SDS011;11187;49.412;20.956;2023-07-13T00:14:42;31.60;;;27.75;;
22046;SDS011;11187;49.412;20.956;2023-07-13T00:17:15;31.17;;;27.70;;
22046;SDS011;11187;49.412;20.956;2023-07-13T00:20:02;30.02;;;26.85;;
22046;SDS011;11187;49.412;20.956;2023-07-13T00:22:36;33.47;;;27.35;;
22046;SDS011;11187;49.412;20.956;2023-07-13T00:25:31;32.22;;;28.52;;
22046;SDS011;11187;49.412;20.956;2023-07-13T00:28:04;32.25;;;28.05;;
22046;SDS011;11187;49.412;20.956;2023-07-13T00:30:52;36.80;;;27.45;;
22046;SDS011;11187;49.412;20.956;2023-07-13T00:33:26;29.42;;;26.30;;
22046;SDS011;11187;49.412;20.956;2023-07-13T00:36:21;32.13;;;28.80;;
22046;SDS011;11187;49.412;20.956;2023-07-13T00:38:54;30.02;;;26.83;;
22046;SDS011;11187;49.412;20.956;2023-07-13T00:41:48;46.85;;;27.08;;
22046;SDS011;11187;49.412;20.956;2023-07-13T00:45:00;32.30;;;27.50;;
22046;SDS011;11187;49.412;20.956;2023-07-13T00:48:15;30.05;;;24.10;;
22046;SDS011;11187;49.412;20.956;2023-07-13T00:51:15;28.38;;;25.48;;
22046;SDS011;11187;49.412;20.956;2023-07-13T00:53:52;27.35;;;24.65;;
22046;SDS011;11187;49.412;20.956;2023-07-13T00:56:41;31.40;;;23.73;;
22046;SDS011;11187;49.412;20.956;2023-07-13T00:59:16;27.50;;;24.90;;
22046;SDS011;11187;49.412;20.956;2023-07-13T01:02:12;27.10;;;24.30;;
22046;SDS011;11187;49.412;20.956;2023-07-13T01:05:13;27.65;;;24.58;;
22046;SDS011;11187;49.412;20.956;2023-07-13T01:08:08;29.30;;;25.40;;
22046;SDS011;11187;49.412;20.956;2023-07-13T01:10:54;27.63;;;25.08;;
22046;SDS011;11187;49.412;20.956;2023-07-13T01:13:50;27.50;;;24.98;;
22046;SDS011;11187;49.412;20.956;2023-07-13T01:16:25;28.70;;;25.88;;
22046;SDS011;11187;49.412;20.956;2023-07-13T01:19:24;27.00;;;24.40;;
22046;SDS011;11187;49.412;20.956;2023-07-13T01:22:13;27.90;;;25.10;;
22046;SDS011;11187;49.412;20.956;2023-07-13T01:25:06;27.73;;;24.50;;
22046;SDS011;11187;49.412;20.956;2023-07-13T01:27:41;26.35;;;23.90;;
22046;SDS011;11187;49.412;20.956;2023-07-13T01:30:35;26.95;;;24.02;;
22046;SDS011;11187;49.412;20.956;2023-07-13T01:33:11;26.15;;;23.65;;
22046;SDS011;11187;49.412;20.956;2023-07-13T01:35:59;27.00;;;24.60;;
22046;SDS011;11187;49.412;20.956;2023-07-13T01:38:32;27.88;;;25.27;;
22046;SDS011;11187;49.412;20.956;2023-07-13T01:41:23;27.48;;;24.83;;
22046;SDS011;11187;49.412;20.956;2023-07-13T01:43:56;26.42;;;24.02;;
22046;SDS011;11187;49.412;20.956;2023-07-13T01:46:43;25.10;;;22.77;;
22046;SDS011;11187;49.412;20.956;2023-07-13T01:49:37;26.33;;;23.85;;
22046;SDS011;11187;49.412;20.956;2023-07-13T01:52:10;26.90;;;24.10;;
22046;SDS011;11187;49.412;20.956;2023-07-13T01:54:57;25.90;;;23.48;;
22046;SDS011;11187;49.412;20.956;2023-07-13T01:57:30;27.90;;;25.10;;
22046;SDS011;11187;49.412;20.956;2023-07-13T02:00:17;26.63;;;24.13;;
22046;SDS011;11187;49.412;20.956;2023-07-13T02:02:50;28.00;;;25.23;;
22046;SDS011;11187;49.412;20.956;2023-07-13T02:05:37;29.10;;;26.15;;
22046;SDS011;11187;49.412;20.956;2023-07-13T02:08:10;28.52;;;25.48;;
22046;SDS011;11187;49.412;20.956;2023-07-13T02:11:04;28.08;;;25.33;;
22046;SDS011;11187;49.412;20.956;2023-07-13T02:13:40;28.13;;;25.20;;
22046;SDS011;11187;49.412;20.956;2023-07-13T02:16:34;26.88;;;24.30;;
22046;SDS011;11187;49.412;20.956;2023-07-13T02:19:31;27.73;;;24.92;;
22046;SDS011;11187;49.412;20.956;2023-07-13T02:22:04;28.55;;;25.65;;
22046;SDS011;11187;49.412;20.956;2023-07-13T02:24:51;27.42;;;24.63;;
22046;SDS011;11187;49.412;20.956;2023-07-13T02:27:24;28.52;;;25.67;;
22046;SDS011;11187;49.412;20.956;2023-07-13T02:30:11;29.13;;;26.20;;
22046;SDS011;11187;49.412;20.956;2023-07-13T02:32:44;29.33;;;24.88;;
22046;SDS011;11187;49.412;20.956;2023-07-13T02:35:31;28.30;;;25.50;;
22046;SDS011;11187;49.412;20.956;2023-07-13T02:38:04;28.52;;;25.70;;
22046;SDS011;11187;49.412;20.956;2023-07-13T02:40:58;29.10;;;26.17;;
22046;SDS011;11187;49.412;20.956;2023-07-13T02:43:31;29.13;;;26.02;;
22046;SDS011;11187;49.412;20.956;2023-07-13T02:46:26;27.75;;;25.05;;
22046;SDS011;11187;49.412;20.956;2023-07-13T02:49:20;28.20;;;25.50;;
22046;SDS011;11187;49.412;20.956;2023-07-13T02:51:53;28.45;;;25.70;;
22046;SDS011;11187;49.412;20.956;2023-07-13T02:54:40;27.25;;;24.60;;
22046;SDS011;11187;49.412;20.956;2023-07-13T02:57:13;29.52;;;26.40;;
22046;SDS011;11187;49.412;20.956;2023-07-13T03:00:00;28.77;;;26.17;;
22046;SDS011;11187;49.412;20.956;2023-07-13T03:02:37;30.88;;;27.75;;
22046;SDS011;11187;49.412;20.956;2023-07-13T03:05:31;29.10;;;26.40;;
22046;SDS011;11187;49.412;20.956;2023-07-13T03:08:04;30.17;;;27.45;;
22046;SDS011;11187;49.412;20.956;2023-07-13T03:10:59;28.55;;;26.05;;
22046;SDS011;11187;49.412;20.956;2023-07-13T03:13:40;28.98;;;26.15;;
22046;SDS011;11187;49.412;20.956;2023-07-13T03:16:28;28.23;;;25.63;;
22046;SDS011;11187;49.412;20.956;2023-07-13T03:19:01;28.58;;;26.08;;
22046;SDS011;11187;49.412;20.956;2023-07-13T03:21:57;29.27;;;26.63;;
22046;SDS011;11187;49.412;20.956;2023-07-13T03:24:51;27.02;;;24.38;;
22046;SDS011;11187;49.412;20.956;2023-07-13T03:27:24;27.45;;;24.83;;
22046;SDS011;11187;49.412;20.956;2023-07-13T03:30:18;30.58;;;27.65;;
22046;SDS011;11187;49.412;20.956;2023-07-13T03:32:51;26.98;;;24.48;;
22046;SDS011;11187;49.412;20.956;2023-07-13T03:35:47;28.20;;;25.65;;
22046;SDS011;11187;49.412;20.956;2023-07-13T03:38:41;29.30;;;26.70;;
22046;SDS011;11187;49.412;20.956;2023-07-13T03:41:15;30.90;;;28.00;;
22046;SDS011;11187;49.412;20.956;2023-07-13T03:44:04;29.73;;;26.83;;
22046;SDS011;11187;49.412;20.956;2023-07-13T03:46:37;28.48;;;25.70;;
22046;SDS011;11187;49.412;20.956;2023-07-13T03:49:24;31.08;;;27.92;;
22046;SDS011;11187;49.412;20.956;2023-07-13T03:51:57;30.02;;;27.15;;
22046;SDS011;11187;49.412;20.956;2023-07-13T03:54:44;29.60;;;26.60;;
22046;SDS011;11187;49.412;20.956;2023-07-13T03:57:18;29.70;;;26.75;;
22046;SDS011;11187;49.412;20.956;2023-07-13T04:00:05;29.45;;;26.45;;
22046;SDS011;11187;49.412;20.956;2023-07-13T04:02:39;30.77;;;27.67;;
22046;SDS011;11187;49.412;20.956;2023-07-13T04:05:36;29.60;;;26.77;;
22046;SDS011;11187;49.412;20.956;2023-07-13T04:08:31;30.42;;;27.60;;
22046;SDS011;11187;49.412;20.956;2023-07-13T04:11:06;30.63;;;27.63;;
22046;SDS011;11187;49.412;20.956;2023-07-13T04:14:00;29.70;;;26.70;;
22046;SDS011;11187;49.412;20.956;2023-07-13T04:16:55;32.03;;;28.83;;
22046;SDS011;11187;49.412;20.956;2023-07-13T04:19:49;30.83;;;28.05;;
22046;SDS011;11187;49.412;20.956;2023-07-13T04:22:43;31.35;;;28.42;;
22046;SDS011;11187;49.412;20.956;2023-07-13T04:25:33;29.70;;;26.85;;
22046;SDS011;11187;49.412;20.956;2023-07-13T04:28:13;31.00;;;28.20;;
22046;SDS011;11187;49.412;20.956;2023-07-13T04:30:53;33.63;;;30.50;;
22046;SDS011;11187;49.412;20.956;2023-07-13T04:33:37;30.98;;;28.20;;
22046;SDS011;11187;49.412;20.956;2023-07-13T04:36:14;31.88;;;29.08;;
22046;SDS011;11187;49.412;20.956;2023-07-13T04:39:08;32.10;;;29.20;;
22046;SDS011;11187;49.412;20.956;2023-07-13T04:41:41;31.15;;;28.35;;
22046;SDS011;11187;49.412;20.956;2023-07-13T04:44:28;31.25;;;28.38;;
22046;SDS011;11187;49.412;20.956;2023-07-13T04:47:04;30.27;;;27.50;;
22046;SDS011;11187;49.412;20.956;2023-07-13T04:49:58;30.60;;;27.83;;
22046;SDS011;11187;49.412;20.956;2023-07-13T04:52:54;27.77;;;25.30;;
22046;SDS011;11187;49.412;20.956;2023-07-13T04:55:27;28.38;;;25.77;;
22046;SDS011;11187;49.412;20.956;2023-07-13T04:58:16;30.98;;;27.65;;
22046;SDS011;11187;49.412;20.956;2023-07-13T05:00:49;29.05;;;26.55;;
22046;SDS011;11187;49.412;20.956;2023-07-13T05:03:37;29.77;;;26.67;;
22046;SDS011;11187;49.412;20.956;2023-07-13T05:06:10;30.83;;;27.88;;
22046;SDS011;11187;49.412;20.956;2023-07-13T05:09:04;30.58;;;27.77;;
22046;SDS011;11187;49.412;20.956;2023-07-13T05:11:59;31.05;;;28.45;;
22046;SDS011;11187;49.412;20.956;2023-07-13T05:14:32;31.05;;;28.05;;
22046;SDS011;11187;49.412;20.956;2023-07-13T05:17:26;30.42;;;27.30;;
22046;SDS011;11187;49.412;20.956;2023-07-13T05:19:59;37.22;;;26.85;;
22046;SDS011;11187;49.412;20.956;2023-07-13T05:22:46;27.83;;;25.23;;
22046;SDS011;11187;49.412;20.956;2023-07-13T05:25:19;30.85;;;27.67;;
22046;SDS011;11187;49.412;20.956;2023-07-13T05:28:06;29.38;;;26.50;;
22046;SDS011;11187;49.412;20.956;2023-07-13T05:30:40;29.10;;;26.55;;
22046;SDS011;11187;49.412;20.956;2023-07-13T05:33:40;26.08;;;23.40;;
22046;SDS011;11187;49.412;20.956;2023-07-13T05:36:34;25.70;;;23.60;;
22046;SDS011;11187;49.412;20.956;2023-07-13T05:39:28;29.48;;;26.50;;
22046;SDS011;11187;49.412;20.956;2023-07-13T05:42:05;28.58;;;26.08;;
22046;SDS011;11187;49.412;20.956;2023-07-13T05:44:58;28.25;;;25.90;;
22046;SDS011;11187;49.412;20.956;2023-07-13T05:47:54;28.10;;;25.63;;
22046;SDS011;11187;49.412;20.956;2023-07-13T05:50:49;29.27;;;26.65;;
22046;SDS011;11187;49.412;20.956;2023-07-13T05:53:25;28.60;;;25.83;;
22046;SDS011;11187;49.412;20.956;2023-07-13T05:56:12;25.67;;;23.42;;
22046;SDS011;11187;49.412;20.956;2023-07-13T05:58:48;26.88;;;24.50;;
22046;SDS011;11187;49.412;20.956;2023-07-13T06:01:36;26.02;;;23.73;;
22046;SDS011;11187;49.412;20.956;2023-07-13T06:04:09;30.38;;;27.88;;
22046;SDS011;11187;49.412;20.956;2023-07-13T06:06:56;25.35;;;22.90;;
22046;SDS011;11187;49.412;20.956;2023-07-13T06:09:29;24.88;;;22.75;;
22046;SDS011;11187;49.412;20.956;2023-07-13T06:12:23;29.50;;;26.90;;
22046;SDS011;11187;49.412;20.956;2023-07-13T06:14:56;27.20;;;25.00;;
22046;SDS011;11187;49.412;20.956;2023-07-13T06:17:51;29.15;;;26.58;;
22046;SDS011;11187;49.412;20.956;2023-07-13T06:20:24;27.95;;;25.50;;
22046;SDS011;11187;49.412;20.956;2023-07-13T06:23:11;36.20;;;32.35;;
22046;SDS011;11187;49.412;20.956;2023-07-13T06:25:44;26.65;;;24.52;;
22046;SDS011;11187;49.412;20.956;2023-07-13T06:28:31;25.30;;;23.20;;
22046;SDS011;11187;49.412;20.956;2023-07-13T06:31:06;27.58;;;25.27;;
22046;SDS011;11187;49.412;20.956;2023-07-13T06:33:54;27.35;;;25.15;;
22046;SDS011;11187;49.412;20.956;2023-07-13T06:36:30;25.73;;;23.65;;
22046;SDS011;11187;49.412;20.956;2023-07-13T06:39:18;25.85;;;23.83;;
22046;SDS011;11187;49.412;20.956;2023-07-13T06:41:51;25.17;;;22.98;;
22046;SDS011;11187;49.412;20.956;2023-07-13T06:44:38;24.25;;;22.08;;
22046;SDS011;11187;49.412;20.956;2023-07-13T06:47:11;23.40;;;21.38;;
22046;SDS011;11187;49.412;20.956;2023-07-13T06:49:59;20.88;;;19.08;;
22046;SDS011;11187;49.412;20.956;2023-07-13T06:52:33;26.05;;;23.85;;
22046;SDS011;11187;49.412;20.956;2023-07-13T06:55:20;25.90;;;23.48;;
22046;SDS011;11187;49.412;20.956;2023-07-13T06:57:53;25.23;;;22.98;;
22046;SDS011;11187;49.412;20.956;2023-07-13T07:00:49;26.30;;;24.20;;
22046;SDS011;11187;49.412;20.956;2023-07-13T07:03:23;24.17;;;22.08;;
22046;SDS011;11187;49.412;20.956;2023-07-13T07:06:18;26.70;;;24.60;;
22046;SDS011;11187;49.412;20.956;2023-07-13T07:08:52;25.90;;;23.70;;
22046;SDS011;11187;49.412;20.956;2023-07-13T07:11:46;23.48;;;21.48;;
22046;SDS011;11187;49.412;20.956;2023-07-13T07:14:43;22.42;;;20.63;;
22046;SDS011;11187;49.412;20.956;2023-07-13T07:17:16;20.92;;;19.27;;
22046;SDS011;11187;49.412;20.956;2023-07-13T07:20:04;20.38;;;18.77;;
22046;SDS011;11187;49.412;20.956;2023-07-13T07:22:38;20.20;;;18.63;;
22046;SDS011;11187;49.412;20.956;2023-07-13T07:25:25;23.20;;;21.58;;
22046;SDS011;11187;49.412;20.956;2023-07-13T07:27:58;20.35;;;18.80;;
22046;SDS011;11187;49.412;20.956;2023-07-13T07:30:48;22.35;;;20.75;;
22046;SDS011;11187;49.412;20.956;2023-07-13T07:33:25;23.30;;;21.50;;
22046;SDS011;11187;49.412;20.956;2023-07-13T07:36:19;23.23;;;21.38;;
22046;SDS011;11187;49.412;20.956;2023-07-13T07:39:16;21.05;;;19.50;;
22046;SDS011;11187;49.412;20.956;2023-07-13T07:41:49;23.77;;;21.98;;
22046;SDS011;11187;49.412;20.956;2023-07-13T07:44:36;26.08;;;24.08;;
22046;SDS011;11187;49.412;20.956;2023-07-13T07:47:09;21.90;;;20.30;;
22046;SDS011;11187;49.412;20.956;2023-07-13T07:49:56;20.55;;;18.95;;
22046;SDS011;11187;49.412;20.956;2023-07-13T07:52:29;20.17;;;18.58;;
22046;SDS011;11187;49.412;20.956;2023-07-13T07:55:16;21.00;;;19.30;;
22046;SDS011;11187;49.412;20.956;2023-07-13T07:57:52;23.25;;;21.52;;
22046;SDS011;11187;49.412;20.956;2023-07-13T08:00:42;27.58;;;25.23;;
22046;SDS011;11187;49.412;20.956;2023-07-13T08:03:18;26.98;;;24.92;;
22046;SDS011;11187;49.412;20.956;2023-07-13T08:06:32;20.92;;;19.23;;
22046;SDS011;11187;49.412;20.956;2023-07-13T08:09:27;21.33;;;19.73;;
22046;SDS011;11187;49.412;20.956;2023-07-13T08:12:00;22.33;;;20.70;;
22046;SDS011;11187;49.412;20.956;2023-07-13T08:14:57;26.83;;;24.08;;
22046;SDS011;11187;49.412;20.956;2023-07-13T08:17:51;26.15;;;23.95;;
22046;SDS011;11187;49.412;20.956;2023-07-13T08:20:45;23.02;;;20.88;;
22046;SDS011;11187;49.412;20.956;2023-07-13T08:23:39;22.65;;;20.75;;
22046;SDS011;11187;49.412;20.956;2023-07-13T08:26:12;26.15;;;23.77;;
22046;SDS011;11187;49.412;20.956;2023-07-13T08:28:59;25.42;;;22.77;;
22046;SDS011;11187;49.412;20.956;2023-07-13T08:31:32;23.65;;;21.75;;
22046;SDS011;11187;49.412;20.956;2023-07-13T08:34:19;27.08;;;24.90;;
22046;SDS011;11187;49.412;20.956;2023-07-13T08:36:53;21.10;;;19.30;;
22046;SDS011;11187;49.412;20.956;2023-07-13T08:39:47;22.40;;;20.30;;
22046;SDS011;11187;49.412;20.956;2023-07-13T08:42:51;25.73;;;23.52;;
22046;SDS011;11187;49.412;20.956;2023-07-13T08:48:41;32.13;;;26.25;;
22046;SDS011;11187;49.412;20.956;2023-07-13T08:51:41;35.10;;;25.55;;
22046;SDS011;11187;49.412;20.956;2023-07-13T08:54:28;29.42;;;26.30;;
22046;SDS011;11187;49.412;20.956;2023-07-13T08:57:20;32.63;;;27.38;;
22046;SDS011;11187;49.412;20.956;2023-07-13T08:59:57;30.95;;;28.10;;
22046;SDS011;11187;49.412;20.956;2023-07-13T09:02:46;31.42;;;28.17;;
22046;SDS011;11187;49.412;20.956;2023-07-13T09:05:29;29.95;;;27.48;;
22046;SDS011;11187;49.412;20.956;2023-07-13T09:11:20;27.75;;;25.23;;
22046;SDS011;11187;49.412;20.956;2023-07-13T09:14:34;34.80;;;27.27;;
22046;SDS011;11187;49.412;20.956;2023-07-13T09:17:33;31.38;;;28.55;;
22046;SDS011;11187;49.412;20.956;2023-07-13T09:23:35;30.80;;;27.90;;
22046;SDS011;11187;49.412;20.956;2023-07-13T09:26:14;29.92;;;27.13;;
22046;SDS011;11187;49.412;20.956;2023-07-13T09:29:09;32.85;;;29.77;;
22046;SDS011;11187;49.412;20.956;2023-07-13T09:31:47;32.38;;;29.13;;
22046;SDS011;11187;49.412;20.956;2023-07-13T09:34:40;33.72;;;30.75;;
22046;SDS011;11187;49.412;20.956;2023-07-13T09:37:13;30.23;;;27.52;;
22046;SDS011;11187;49.412;20.956;2023-07-13T09:39:53;31.25;;;28.38;;
22046;SDS011;11187;49.412;20.956;2023-07-13T09:42:35;31.10;;;28.20;;
22046;SDS011;11187;49.412;20.956;2023-07-13T09:45:08;31.20;;;28.05;;
22046;SDS011;11187;49.412;20.956;2023-07-13T09:48:11;30.85;;;28.08;;
22046;SDS011;11187;49.412;20.956;2023-07-13T09:51:07;28.10;;;25.27;;
22046;SDS011;11187;49.412;20.956;2023-07-13T09:54:17;28.25;;;25.65;;
22046;SDS011;11187;49.412;20.956;2023-07-13T09:56:56;32.55;;;29.55;;
22046;SDS011;11187;49.412;20.956;2023-07-13T09:59:52;29.10;;;26.20;;
22046;SDS011;11187;49.412;20.956;2023-07-13T10:05:26;34.67;;;31.30;;
22046;SDS011;11187;49.412;20.956;2023-07-13T10:07:59;31.48;;;28.38;;
22046;SDS011;11187;49.412;20.956;2023-07-13T10:10:57;31.23;;;27.98;;
22046;SDS011;11187;49.412;20.956;2023-07-13T10:14:13;32.53;;;29.23;;
22046;SDS011;11187;49.412;20.956;2023-07-13T10:17:10;34.55;;;31.05;;
22046;SDS011;11187;49.412;20.956;2023-07-13T10:19:46;34.13;;;30.65;;
22046;SDS011;11187;49.412;20.956;2023-07-13T10:22:39;35.05;;;31.60;;
22046;SDS011;11187;49.412;20.956;2023-07-13T10:25:24;33.05;;;29.83;;
22046;SDS011;11187;49.412;20.956;2023-07-13T10:30:56;32.13;;;29.10;;
22046;SDS011;11187;49.412;20.956;2023-07-13T10:33:53;30.23;;;27.25;;
22046;SDS011;11187;49.412;20.956;2023-07-13T10:36:47;32.42;;;29.20;;
22046;SDS011;11187;49.412;20.956;2023-07-13T10:39:22;32.15;;;28.90;;
22046;SDS011;11187;49.412;20.956;2023-07-13T10:42:25;36.65;;;33.00;;
22046;SDS011;11187;49.412;20.956;2023-07-13T10:45:01;36.05;;;31.90;;
22046;SDS011;11187;49.412;20.956;2023-07-13T10:47:56;35.03;;;31.65;;
22046;SDS011;11187;49.412;20.956;2023-07-13T10:50:53;35.22;;;31.05;;
22046;SDS011;11187;49.412;20.956;2023-07-13T10:53:41;35.42;;;31.83;;
22046;SDS011;11187;49.412;20.956;2023-07-13T10:56:23;35.78;;;30.05;;
22046;SDS011;11187;49.412;20.956;2023-07-13T10:59:09;32.65;;;29.65;;
22046;SDS011;11187;49.412;20.956;2023-07-13T11:02:15;34.05;;;30.67;;
22046;SDS011;11187;49.412;20.956;2023-07-13T11:04:57;35.38;;;31.75;;
22046;SDS011;11187;49.412;20.956;2023-07-13T11:07:55;34.75;;;31.27;;
22046;SDS011;11187;49.412;20.956;2023-07-13T11:10:54;31.88;;;28.48;;
22046;SDS011;11187;49.412;20.956;2023-07-13T11:24:57;34.97;;;27.98;;
22046;SDS011;11187;49.412;20.956;2023-07-13T11:27:42;32.33;;;28.25;;
22046;SDS011;11187;49.412;20.956;2023-07-13T11:30:43;38.47;;;30.85;;
22046;SDS011;11187;49.412;20.956;2023-07-13T11:36:16;32.47;;;29.20;;
22046;SDS011;11187;49.412;20.956;2023-07-13T11:39:11;32.00;;;28.67;;
22046;SDS011;11187;49.412;20.956;2023-07-13T11:41:56;30.33;;;27.33;;
22046;SDS011;11187;49.412;20.956;2023-07-13T11:44:49;25.75;;;23.45;;
22046;SDS011;11187;49.412;20.956;2023-07-13T11:47:39;25.13;;;22.92;;
22046;SDS011;11187;49.412;20.956;2023-07-13T11:50:27;19.38;;;16.58;;
22046;SDS011;11187;49.412;20.956;2023-07-13T11:53:00;22.35;;;17.88;;
22046;SDS011;11187;49.412;20.956;2023-07-13T11:55:54;22.10;;;19.80;;
22046;SDS011;11187;49.412;20.956;2023-07-13T11:58:29;23.75;;;21.95;;
22046;SDS011;11187;49.412;20.956;2023-07-13T12:01:28;25.27;;;22.83;;
22046;SDS011;11187;49.412;20.956;2023-07-13T12:04:05;24.15;;;14.90;;
22046;SDS011;11187;49.412;20.956;2023-07-13T12:06:56;20.42;;;18.63;;
22046;SDS011;11187;49.412;20.956;2023-07-13T12:09:37;23.63;;;21.30;;
22046;SDS011;11187;49.412;20.956;2023-07-13T12:12:28;23.65;;;21.83;;
22046;SDS011;11187;49.412;20.956;2023-07-13T12:15:08;21.83;;;18.92;;
22046;SDS011;11187;49.412;20.956;2023-07-13T12:18:15;24.67;;;20.77;;
22046;SDS011;11187;49.412;20.956;2023-07-13T12:21:13;30.13;;;24.25;;
22046;SDS011;11187;49.412;20.956;2023-07-13T12:24:16;21.75;;;19.80;;
22046;SDS011;11187;49.412;20.956;2023-07-13T12:26:58;20.98;;;19.13;;
22046;SDS011;11187;49.412;20.956;2023-07-13T12:29:58;24.50;;;22.02;;
22046;SDS011;11187;49.412;20.956;2023-07-13T12:33:02;24.45;;;22.70;;
22046;SDS011;11187;49.412;20.956;2023-07-13T12:35:47;24.63;;;20.25;;
22046;SDS011;11187;49.412;20.956;2023-07-13T12:38:44;21.88;;;19.67;;
22046;SDS011;11187;49.412;20.956;2023-07-13T12:41:39;21.65;;;19.83;;
22046;SDS011;11187;49.412;20.956;2023-07-13T12:44:13;20.77;;;19.17;;
22046;SDS011;11187;49.412;20.956;2023-07-13T12:47:13;20.92;;;19.23;;
22046;SDS011;11187;49.412;20.956;2023-07-13T12:50:15;20.52;;;18.80;;
22046;SDS011;11187;49.412;20.956;2023-07-13T12:52:51;20.55;;;18.63;;
22046;SDS011;11187;49.412;20.956;2023-07-13T12:55:45;20.00;;;18.60;;
22046;SDS011;11187;49.412;20.956;2023-07-13T12:58:42;23.05;;;20.60;;
22046;SDS011;11187;49.412;20.956;2023-07-13T13:01:34;18.35;;;17.02;;
22046;SDS011;11187;49.412;20.956;2023-07-13T13:04:11;20.65;;;18.02;;
22046;SDS011;11187;49.412;20.956;2023-07-13T13:07:08;18.33;;;16.58;;
22046;SDS011;11187;49.412;20.956;2023-07-13T13:10:13;17.63;;;16.35;;
22046;SDS011;11187;49.412;20.956;2023-07-13T13:12:46;19.08;;;17.25;;
22046;SDS011;11187;49.412;20.956;2023-07-13T13:15:33;19.77;;;17.83;;
22046;SDS011;11187;49.412;20.956;2023-07-13T13:18:16;18.88;;;17.40;;
22046;SDS011;11187;49.412;20.956;2023-07-13T13:21:05;18.92;;;17.35;;
22046;SDS011;11187;49.412;20.956;2023-07-13T13:23:38;20.92;;;19.60;;
22046;SDS011;11187;49.412;20.956;2023-07-13T13:26:25;21.98;;;20.05;;
22046;SDS011;11187;49.412;20.956;2023-07-13T13:29:00;18.60;;;17.17;;
22046;SDS011;11187;49.412;20.956;2023-07-13T13:31:47;18.90;;;17.13;;
22046;SDS011;11187;49.412;20.956;2023-07-13T13:34:21;20.40;;;18.95;;
22046;SDS011;11187;49.412;20.956;2023-07-13T13:37:17;20.65;;;19.25;;
22046;SDS011;11187;49.412;20.956;2023-07-13T13:40:17;19.27;;;17.83;;
22046;SDS011;11187;49.412;20.956;2023-07-13T13:42:53;19.45;;;17.70;;
22046;SDS011;11187;49.412;20.956;2023-07-13T13:45:41;20.33;;;18.52;;
22046;SDS011;11187;49.412;20.956;2023-07-13T13:48:18;22.88;;;19.45;;
22046;SDS011;11187;49.412;20.956;2023-07-13T13:51:18;18.42;;;16.73;;
22046;SDS011;11187;49.412;20.956;2023-07-13T13:54:13;19.33;;;17.73;;
22046;SDS011;11187;49.412;20.956;2023-07-13T13:56:49;19.80;;;18.40;;
22046;SDS011;11187;49.412;20.956;2023-07-13T13:59:39;24.80;;;19.15;;
22046;SDS011;11187;49.412;20.956;2023-07-13T14:02:31;19.55;;;18.00;;
22046;SDS011;11187;49.412;20.956;2023-07-13T14:05:25;17.67;;;16.48;;
22046;SDS011;11187;49.412;20.956;2023-07-13T14:08:19;18.25;;;16.85;;
22046;SDS011;11187;49.412;20.956;2023-07-13T14:10:54;19.38;;;17.60;;
22046;SDS011;11187;49.412;20.956;2023-07-13T14:13:51;16.33;;;14.90;;
22046;SDS011;11187;49.412;20.956;2023-07-13T14:16:31;20.30;;;18.42;;
22046;SDS011;11187;49.412;20.956;2023-07-13T14:19:19;20.25;;;17.02;;
22046;SDS011;11187;49.412;20.956;2023-07-13T14:21:52;28.67;;;17.15;;
22046;SDS011;11187;49.412;20.956;2023-07-13T14:24:39;18.05;;;16.65;;
22046;SDS011;11187;49.412;20.956;2023-07-13T14:27:12;18.52;;;16.92;;
22046;SDS011;11187;49.412;20.956;2023-07-13T14:30:16;18.98;;;17.13;;
22046;SDS011;11187;49.412;20.956;2023-07-13T14:32:51;18.13;;;16.27;;
22046;SDS011;11187;49.412;20.956;2023-07-13T14:35:38;18.27;;;16.80;;
22046;SDS011;11187;49.412;20.956;2023-07-13T14:38:12;19.15;;;17.40;;
22046;SDS011;11187;49.412;20.956;2023-07-13T14:41:09;22.23;;;20.05;;
22046;SDS011;11187;49.412;20.956;2023-07-13T14:46:46;21.50;;;15.85;;
22046;SDS011;11187;49.412;20.956;2023-07-13T14:49:43;20.77;;;18.55;;
22046;SDS011;11187;49.412;20.956;2023-07-13T14:52:17;17.48;;;15.88;;
22046;SDS011;11187;49.412;20.956;2023-07-13T14:55:11;17.63;;;16.42;;
22046;SDS011;11187;49.412;20.956;2023-07-13T14:57:45;15.88;;;14.20;;
22046;SDS011;11187;49.412;20.956;2023-07-13T15:00:32;16.17;;;14.85;;
22046;SDS011;11187;49.412;20.956;2023-07-13T15:03:08;17.27;;;15.95;;
22046;SDS011;11187;49.412;20.956;2023-07-13T15:06:16;18.63;;;17.05;;
22046;SDS011;11187;49.412;20.956;2023-07-13T15:09:11;16.83;;;15.75;;
22046;SDS011;11187;49.412;20.956;2023-07-13T15:11:46;17.60;;;16.35;;
22046;SDS011;11187;49.412;20.956;2023-07-13T15:14:40;15.70;;;14.45;;
22046;SDS011;11187;49.412;20.956;2023-07-13T15:17:38;19.23;;;17.55;;
22046;SDS011;11187;49.412;20.956;2023-07-13T15:20:35;17.42;;;15.55;;
22046;SDS011;11187;49.412;20.956;2023-07-13T15:23:31;16.75;;;15.45;;
22046;SDS011;11187;49.412;20.956;2023-07-13T15:26:11;15.13;;;13.98;;
22046;SDS011;11187;49.412;20.956;2023-07-13T15:28:59;17.60;;;15.98;;
22046;SDS011;11187;49.412;20.956;2023-07-13T15:31:35;18.90;;;17.45;;
22046;SDS011;11187;49.412;20.956;2023-07-13T15:34:29;17.92;;;16.58;;
22046;SDS011;11187;49.412;20.956;2023-07-13T15:37:26;17.70;;;16.23;;
22046;SDS011;11187;49.412;20.956;2023-07-13T15:39:59;18.70;;;16.88;;
22046;SDS011;11187;49.412;20.956;2023-07-13T15:42:46;17.20;;;16.10;;
22046;SDS011;11187;49.412;20.956;2023-07-13T15:45:20;19.10;;;17.40;;
22046;SDS011;11187;49.412;20.956;2023-07-13T15:50:51;16.98;;;15.60;;
22046;SDS011;11187;49.412;20.956;2023-07-13T15:53:39;16.85;;;15.85;;
22046;SDS011;11187;49.412;20.956;2023-07-13T15:56:17;20.25;;;18.60;;
22046;SDS011;11187;49.412;20.956;2023-07-13T15:59:07;18.20;;;16.90;;
22046;SDS011;11187;49.412;20.956;2023-07-13T16:01:43;17.30;;;16.00;;
22046;SDS011;11187;49.412;20.956;2023-07-13T16:04:23;18.15;;;16.30;;
22046;SDS011;11187;49.412;20.956;2023-07-13T16:07:03;18.60;;;16.92;;
22046;SDS011;11187;49.412;20.956;2023-07-13T16:09:44;18.88;;;17.05;;
22046;SDS011;11187;49.412;20.956;2023-07-13T16:12:26;17.85;;;16.67;;
22046;SDS011;11187;49.412;20.956;2023-07-13T16:15:16;17.23;;;15.73;;
22046;SDS011;11187;49.412;20.956;2023-07-13T16:17:58;17.30;;;15.75;;
22046;SDS011;11187;49.412;20.956;2023-07-13T16:20:31;17.65;;;15.82;;
22046;SDS011;11187;49.412;20.956;2023-07-13T16:23:25;15.48;;;14.07;;
22046;SDS011;11187;49.412;20.956;2023-07-13T16:26:39;17.63;;;16.25;;
22046;SDS011;11187;49.412;20.956;2023-07-13T16:29:13;20.33;;;15.75;;
22046;SDS011;11187;49.412;20.956;2023-07-13T16:34:43;16.88;;;15.60;;